sensor_id;sensor_type;location;lat;lon;timestamp;P1;durP1;ratioP1;P2;durP2;ratioP2
6111;SDS011;3086;48.802;9.394;2023-08-30T00:02:40;13.27;;;12.03;;
6111;SDS011;3086;48.802;9.394;2023-08-30T00:06:04;13.27;;;11.90;;
6111;SDS011;3086;48.802;9.394;2023-08-30T00:09:26;13.80;;;12.50;;
6111;SDS011;3086;48.802;9.394;2023-08-30T00:12:48;14.50;;;13.20;;
6111;SDS011;3086;48.802;9.394;2023-08-30T00:16:11;13.90;;;12.63;;
6111;SDS011;3086;48.802;9.394;2023-08-30T00:19:33;16.90;;;12.40;;
6111;SDS011;3086;48.802;9.394;2023-08-30T00:22:54;14.37;;;12.90;;
6111;SDS011;3086;48.802;9.394;2023-08-30T00:26:16;14.90;;;13.37;;
6111;SDS011;3086;48.802;9.394;2023-08-30T00:29:37;14.10;;;12.70;;
6111;SDS011;3086;48.802;9.394;2023-08-30T00:33:00;12.37;;;11.10;;
6111;SDS011;3086;48.802;9.394;2023-08-30T00:36:21;13.67;;;12.23;;
6111;SDS011;3086;48.802;9.394;2023-08-30T00:39:43;14.37;;;12.97;;
6111;SDS011;3086;48.802;9.394;2023-08-30T00:43:05;13.53;;;12.20;;
6111;SDS011;3086;48.802;9.394;2023-08-30T00:46:26;13.10;;;11.80;;
6111;SDS011;3086;48.802;9.394;2023-08-30T00:49:49;16.60;;;13.40;;
6111;SDS011;3086;48.802;9.394;2023-08-30T00:53:11;13.60;;;12.30;;
6111;SDS011;3086;48.802;9.394;2023-08-30T00:56:33;14.67;;;13.20;;
6111;SDS011;3086;48.802;9.394;2023-08-30T00:59:55;14.07;;;12.50;;
6111;SDS011;3086;48.802;9.394;2023-08-30T01:03:16;17.23;;;14.73;;
6111;SDS011;3086;48.802;9.394;2023-08-30T01:06:39;16.23;;;14.53;;
6111;SDS011;3086;48.802;9.394;2023-08-30T01:10:01;17.13;;;14.80;;
6111;SDS011;3086;48.802;9.394;2023-08-30T01:13:23;16.30;;;14.80;;
6111;SDS011;3086;48.802;9.394;2023-08-30T01:16:47;16.40;;;14.80;;
6111;SDS011;3086;48.802;9.394;2023-08-30T01:20:09;16.53;;;14.83;;
6111;SDS011;3086;48.802;9.394;2023-08-30T01:23:40;16.47;;;14.97;;
6111;SDS011;3086;48.802;9.394;2023-08-30T01:27:09;17.40;;;15.57;;
6111;SDS011;3086;48.802;9.394;2023-08-30T01:30:32;17.93;;;16.03;;
6111;SDS011;3086;48.802;9.394;2023-08-30T01:33:53;17.30;;;15.40;;
6111;SDS011;3086;48.802;9.394;2023-08-30T01:37:16;24.47;;;21.77;;
6111;SDS011;3086;48.802;9.394;2023-08-30T01:40:38;28.50;;;24.23;;
6111;SDS011;3086;48.802;9.394;2023-08-30T01:44:02;32.10;;;27.60;;
6111;SDS011;3086;48.802;9.394;2023-08-30T01:47:25;29.57;;;26.40;;
6111;SDS011;3086;48.802;9.394;2023-08-30T01:50:48;32.40;;;27.77;;
6111;SDS011;3086;48.802;9.394;2023-08-30T01:54:10;33.53;;;29.47;;
6111;SDS011;3086;48.802;9.394;2023-08-30T01:57:34;31.70;;;27.50;;
6111;SDS011;3086;48.802;9.394;2023-08-30T02:00:57;27.47;;;24.13;;
6111;SDS011;3086;48.802;9.394;2023-08-30T02:04:19;23.00;;;20.63;;
6111;SDS011;3086;48.802;9.394;2023-08-30T02:07:43;23.23;;;20.93;;
6111;SDS011;3086;48.802;9.394;2023-08-30T02:11:11;24.60;;;20.07;;
6111;SDS011;3086;48.802;9.394;2023-08-30T02:14:35;27.63;;;24.73;;
6111;SDS011;3086;48.802;9.394;2023-08-30T02:17:59;26.17;;;23.53;;
6111;SDS011;3086;48.802;9.394;2023-08-30T02:21:21;23.30;;;20.90;;
6111;SDS011;3086;48.802;9.394;2023-08-30T02:24:43;22.10;;;19.77;;
6111;SDS011;3086;48.802;9.394;2023-08-30T02:28:05;22.37;;;18.63;;
6111;SDS011;3086;48.802;9.394;2023-08-30T02:31:26;21.37;;;19.17;;
6111;SDS011;3086;48.802;9.394;2023-08-30T02:34:51;20.07;;;17.97;;
6111;SDS011;3086;48.802;9.394;2023-08-30T02:38:13;23.83;;;19.30;;
6111;SDS011;3086;48.802;9.394;2023-08-30T02:41:34;25.63;;;22.10;;
6111;SDS011;3086;48.802;9.394;2023-08-30T02:44:56;42.77;;;37.67;;
6111;SDS011;3086;48.802;9.394;2023-08-30T02:48:17;32.87;;;28.90;;
6111;SDS011;3086;48.802;9.394;2023-08-30T02:51:40;27.30;;;24.37;;
6111;SDS011;3086;48.802;9.394;2023-08-30T02:55:02;19.40;;;17.37;;
6111;SDS011;3086;48.802;9.394;2023-08-30T02:58:24;18.03;;;15.57;;
6111;SDS011;3086;48.802;9.394;2023-08-30T03:01:45;14.00;;;12.67;;
6111;SDS011;3086;48.802;9.394;2023-08-30T03:05:07;14.43;;;12.93;;
6111;SDS011;3086;48.802;9.394;2023-08-30T03:08:30;15.27;;;12.97;;
6111;SDS011;3086;48.802;9.394;2023-08-30T03:11:52;14.17;;;12.87;;
6111;SDS011;3086;48.802;9.394;2023-08-30T03:15:14;14.93;;;13.43;;
6111;SDS011;3086;48.802;9.394;2023-08-30T03:18:35;16.30;;;14.70;;
6111;SDS011;3086;48.802;9.394;2023-08-30T03:21:57;15.63;;;14.00;;
6111;SDS011;3086;48.802;9.394;2023-08-30T03:25:22;14.37;;;13.00;;
6111;SDS011;3086;48.802;9.394;2023-08-30T03:28:44;14.97;;;13.57;;
6111;SDS011;3086;48.802;9.394;2023-08-30T03:32:05;15.63;;;14.13;;
6111;SDS011;3086;48.802;9.394;2023-08-30T03:35:27;16.23;;;14.47;;
6111;SDS011;3086;48.802;9.394;2023-08-30T03:38:48;15.97;;;14.27;;
6111;SDS011;3086;48.802;9.394;2023-08-30T03:42:11;15.50;;;13.97;;
6111;SDS011;3086;48.802;9.394;2023-08-30T03:45:34;16.43;;;14.73;;
6111;SDS011;3086;48.802;9.394;2023-08-30T03:48:56;17.07;;;15.27;;
6111;SDS011;3086;48.802;9.394;2023-08-30T03:52:17;16.90;;;15.33;;
6111;SDS011;3086;48.802;9.394;2023-08-30T03:55:40;16.50;;;14.80;;
6111;SDS011;3086;48.802;9.394;2023-08-30T03:59:02;16.90;;;15.20;;
6111;SDS011;3086;48.802;9.394;2023-08-30T04:02:24;15.77;;;14.17;;
6111;SDS011;3086;48.802;9.394;2023-08-30T04:05:45;16.87;;;15.17;;
6111;SDS011;3086;48.802;9.394;2023-08-30T04:09:07;17.20;;;15.50;;
6111;SDS011;3086;48.802;9.394;2023-08-30T04:12:30;15.57;;;14.07;;
6111;SDS011;3086;48.802;9.394;2023-08-30T04:15:53;19.07;;;15.37;;
6111;SDS011;3086;48.802;9.394;2023-08-30T04:19:16;19.00;;;15.03;;
6111;SDS011;3086;48.802;9.394;2023-08-30T04:22:37;16.00;;;14.40;;
6111;SDS011;3086;48.802;9.394;2023-08-30T04:26:05;17.43;;;15.73;;
6111;SDS011;3086;48.802;9.394;2023-08-30T04:29:27;16.63;;;14.93;;
6111;SDS011;3086;48.802;9.394;2023-08-30T04:32:50;16.07;;;14.50;;
6111;SDS011;3086;48.802;9.394;2023-08-30T04:36:11;16.13;;;14.50;;
6111;SDS011;3086;48.802;9.394;2023-08-30T04:39:33;17.00;;;15.40;;
6111;SDS011;3086;48.802;9.394;2023-08-30T04:42:54;16.07;;;14.57;;
6111;SDS011;3086;48.802;9.394;2023-08-30T04:46:16;16.33;;;14.70;;
6111;SDS011;3086;48.802;9.394;2023-08-30T04:49:38;15.93;;;14.33;;
6111;SDS011;3086;48.802;9.394;2023-08-30T04:53:00;16.77;;;15.00;;
6111;SDS011;3086;48.802;9.394;2023-08-30T04:56:21;17.83;;;15.93;;
6111;SDS011;3086;48.802;9.394;2023-08-30T04:59:43;17.50;;;15.40;;
6111;SDS011;3086;48.802;9.394;2023-08-30T05:03:05;20.13;;;16.40;;
6111;SDS011;3086;48.802;9.394;2023-08-30T05:06:28;17.53;;;15.83;;
6111;SDS011;3086;48.802;9.394;2023-08-30T05:09:50;16.37;;;14.70;;
6111;SDS011;3086;48.802;9.394;2023-08-30T05:13:11;16.63;;;14.93;;
6111;SDS011;3086;48.802;9.394;2023-08-30T05:16:33;17.17;;;15.33;;
6111;SDS011;3086;48.802;9.394;2023-08-30T05:19:54;19.33;;;15.63;;
6111;SDS011;3086;48.802;9.394;2023-08-30T05:23:23;17.97;;;14.80;;
6111;SDS011;3086;48.802;9.394;2023-08-30T05:26:45;16.77;;;15.27;;
6111;SDS011;3086;48.802;9.394;2023-08-30T05:30:07;17.50;;;15.90;;
6111;SDS011;3086;48.802;9.394;2023-08-30T05:33:29;16.00;;;14.53;;
6111;SDS011;3086;48.802;9.394;2023-08-30T05:36:50;14.70;;;13.30;;
6111;SDS011;3086;48.802;9.394;2023-08-30T05:40:14;14.70;;;13.30;;
6111;SDS011;3086;48.802;9.394;2023-08-30T05:43:37;13.57;;;12.33;;
6111;SDS011;3086;48.802;9.394;2023-08-30T05:46:58;14.63;;;13.20;;
6111;SDS011;3086;48.802;9.394;2023-08-30T05:50:20;14.37;;;13.10;;
6111;SDS011;3086;48.802;9.394;2023-08-30T05:53:41;15.73;;;14.27;;
6111;SDS011;3086;48.802;9.394;2023-08-30T05:57:04;15.27;;;13.87;;
6111;SDS011;3086;48.802;9.394;2023-08-30T06:00:26;14.70;;;12.83;;
6111;SDS011;3086;48.802;9.394;2023-08-30T06:03:47;14.30;;;13.00;;
6111;SDS011;3086;48.802;9.394;2023-08-30T06:07:09;14.20;;;12.90;;
6111;SDS011;3086;48.802;9.394;2023-08-30T06:10:30;15.77;;;14.27;;
6111;SDS011;3086;48.802;9.394;2023-08-30T06:13:53;15.83;;;14.43;;
6111;SDS011;3086;48.802;9.394;2023-08-30T06:17:15;15.80;;;14.20;;
6111;SDS011;3086;48.802;9.394;2023-08-30T06:20:39;17.07;;;15.47;;
6111;SDS011;3086;48.802;9.394;2023-08-30T06:24:01;14.70;;;13.43;;
6111;SDS011;3086;48.802;9.394;2023-08-30T06:27:23;14.80;;;13.40;;
6111;SDS011;3086;48.802;9.394;2023-08-30T06:30:46;14.90;;;13.43;;
6111;SDS011;3086;48.802;9.394;2023-08-30T06:34:07;13.17;;;12.07;;
6111;SDS011;3086;48.802;9.394;2023-08-30T06:37:29;13.30;;;12.17;;
6111;SDS011;3086;48.802;9.394;2023-08-30T06:40:50;12.57;;;11.47;;
6111;SDS011;3086;48.802;9.394;2023-08-30T06:44:12;10.37;;;9.47;;
6111;SDS011;3086;48.802;9.394;2023-08-30T06:47:35;9.27;;;8.47;;
6111;SDS011;3086;48.802;9.394;2023-08-30T06:50:57;8.23;;;6.47;;
6111;SDS011;3086;48.802;9.394;2023-08-30T06:54:18;6.50;;;5.60;;
6111;SDS011;3086;48.802;9.394;2023-08-30T06:57:40;7.13;;;6.40;;
6111;SDS011;3086;48.802;9.394;2023-08-30T07:04:51;7.83;;;6.33;;
6111;SDS011;3086;48.802;9.394;2023-08-30T07:08:12;6.53;;;5.93;;
6111;SDS011;3086;48.802;9.394;2023-08-30T07:11:34;6.87;;;6.23;;
6111;SDS011;3086;48.802;9.394;2023-08-30T07:14:56;6.47;;;5.87;;
6111;SDS011;3086;48.802;9.394;2023-08-30T07:18:19;6.93;;;6.33;;
6111;SDS011;3086;48.802;9.394;2023-08-30T07:21:42;6.30;;;5.80;;
6111;SDS011;3086;48.802;9.394;2023-08-30T07:25:04;8.27;;;5.60;;
6111;SDS011;3086;48.802;9.394;2023-08-30T07:28:26;6.27;;;5.77;;
6111;SDS011;3086;48.802;9.394;2023-08-30T07:31:48;6.60;;;6.00;;
6111;SDS011;3086;48.802;9.394;2023-08-30T07:35:11;6.50;;;5.77;;
6111;SDS011;3086;48.802;9.394;2023-08-30T07:38:34;6.27;;;5.67;;
6111;SDS011;3086;48.802;9.394;2023-08-30T07:41:56;6.83;;;6.13;;
6111;SDS011;3086;48.802;9.394;2023-08-30T07:45:17;7.00;;;6.30;;
6111;SDS011;3086;48.802;9.394;2023-08-30T07:48:39;7.53;;;6.83;;
6111;SDS011;3086;48.802;9.394;2023-08-30T07:52:00;8.70;;;7.00;;
6111;SDS011;3086;48.802;9.394;2023-08-30T07:55:23;6.53;;;6.03;;
6111;SDS011;3086;48.802;9.394;2023-08-30T07:58:45;6.63;;;6.03;;
6111;SDS011;3086;48.802;9.394;2023-08-30T08:02:06;7.23;;;6.53;;
6111;SDS011;3086;48.802;9.394;2023-08-30T08:05:28;6.73;;;6.03;;
6111;SDS011;3086;48.802;9.394;2023-08-30T08:08:50;6.27;;;5.70;;
6111;SDS011;3086;48.802;9.394;2023-08-30T08:12:13;6.67;;;5.97;;
6111;SDS011;3086;48.802;9.394;2023-08-30T08:15:34;6.47;;;5.80;;
6111;SDS011;3086;48.802;9.394;2023-08-30T08:18:57;5.77;;;5.30;;
6111;SDS011;3086;48.802;9.394;2023-08-30T08:22:21;5.80;;;5.30;;
6111;SDS011;3086;48.802;9.394;2023-08-30T08:25:43;6.57;;;5.07;;
6111;SDS011;3086;48.802;9.394;2023-08-30T08:29:06;5.13;;;4.63;;
6111;SDS011;3086;48.802;9.394;2023-08-30T08:32:28;5.07;;;4.47;;
6111;SDS011;3086;48.802;9.394;2023-08-30T08:35:50;4.63;;;4.23;;
6111;SDS011;3086;48.802;9.394;2023-08-30T08:39:12;5.67;;;5.17;;
6111;SDS011;3086;48.802;9.394;2023-08-30T08:42:34;4.87;;;4.47;;
6111;SDS011;3086;48.802;9.394;2023-08-30T08:45:58;4.93;;;4.53;;
6111;SDS011;3086;48.802;9.394;2023-08-30T08:49:21;6.50;;;5.13;;
6111;SDS011;3086;48.802;9.394;2023-08-30T08:52:42;4.80;;;4.20;;
6111;SDS011;3086;48.802;9.394;2023-08-30T08:56:04;4.70;;;4.17;;
6111;SDS011;3086;48.802;9.394;2023-08-30T08:59:28;4.90;;;4.40;;
6111;SDS011;3086;48.802;9.394;2023-08-30T09:02:56;4.30;;;3.90;;
6111;SDS011;3086;48.802;9.394;2023-08-30T09:06:19;4.20;;;3.70;;
6111;SDS011;3086;48.802;9.394;2023-08-30T09:09:40;3.90;;;3.60;;
6111;SDS011;3086;48.802;9.394;2023-08-30T09:13:02;4.20;;;3.90;;
6111;SDS011;3086;48.802;9.394;2023-08-30T09:16:24;5.43;;;4.03;;
6111;SDS011;3086;48.802;9.394;2023-08-30T09:19:47;3.97;;;3.60;;
6111;SDS011;3086;48.802;9.394;2023-08-30T09:23:15;4.47;;;3.30;;
6111;SDS011;3086;48.802;9.394;2023-08-30T09:26:37;3.67;;;3.37;;
6111;SDS011;3086;48.802;9.394;2023-08-30T09:29:59;4.10;;;3.20;;
6111;SDS011;3086;48.802;9.394;2023-08-30T09:33:21;3.27;;;3.07;;
6111;SDS011;3086;48.802;9.394;2023-08-30T09:36:46;2.80;;;2.60;;
6111;SDS011;3086;48.802;9.394;2023-08-30T09:40:09;2.90;;;2.60;;
6111;SDS011;3086;48.802;9.394;2023-08-30T09:43:30;3.03;;;2.83;;
6111;SDS011;3086;48.802;9.394;2023-08-30T09:46:53;2.80;;;2.60;;
6111;SDS011;3086;48.802;9.394;2023-08-30T09:50:17;3.20;;;2.90;;
6111;SDS011;3086;48.802;9.394;2023-08-30T09:53:42;3.97;;;3.50;;
6111;SDS011;3086;48.802;9.394;2023-08-30T09:57:06;4.07;;;3.00;;
6111;SDS011;3086;48.802;9.394;2023-08-30T10:00:28;2.90;;;2.60;;
6111;SDS011;3086;48.802;9.394;2023-08-30T10:03:50;2.83;;;2.50;;
6111;SDS011;3086;48.802;9.394;2023-08-30T10:07:13;3.47;;;2.30;;
6111;SDS011;3086;48.802;9.394;2023-08-30T10:10:36;2.70;;;2.50;;
6111;SDS011;3086;48.802;9.394;2023-08-30T10:13:59;2.77;;;2.47;;
6111;SDS011;3086;48.802;9.394;2023-08-30T10:17:20;2.83;;;2.50;;
6111;SDS011;3086;48.802;9.394;2023-08-30T10:20:42;2.50;;;2.30;;
6111;SDS011;3086;48.802;9.394;2023-08-30T10:24:05;2.60;;;2.40;;
6111;SDS011;3086;48.802;9.394;2023-08-30T10:27:30;2.80;;;2.23;;
6111;SDS011;3086;48.802;9.394;2023-08-30T10:30:52;3.63;;;2.70;;
6111;SDS011;3086;48.802;9.394;2023-08-30T10:34:14;2.30;;;2.20;;
6111;SDS011;3086;48.802;9.394;2023-08-30T10:37:37;2.77;;;2.57;;
6111;SDS011;3086;48.802;9.394;2023-08-30T10:41:05;2.77;;;2.57;;
6111;SDS011;3086;48.802;9.394;2023-08-30T10:44:28;2.67;;;2.43;;
6111;SDS011;3086;48.802;9.394;2023-08-30T10:47:54;2.97;;;2.67;;
6111;SDS011;3086;48.802;9.394;2023-08-30T10:51:18;2.80;;;2.60;;
6111;SDS011;3086;48.802;9.394;2023-08-30T10:54:41;3.80;;;2.60;;
6111;SDS011;3086;48.802;9.394;2023-08-30T10:58:04;4.37;;;2.60;;
6111;SDS011;3086;48.802;9.394;2023-08-30T11:01:26;2.77;;;2.53;;
6111;SDS011;3086;48.802;9.394;2023-08-30T11:04:48;3.47;;;3.17;;
6111;SDS011;3086;48.802;9.394;2023-08-30T11:08:10;7.17;;;4.93;;
6111;SDS011;3086;48.802;9.394;2023-08-30T11:11:31;5.00;;;3.90;;
6111;SDS011;3086;48.802;9.394;2023-08-30T11:14:54;2.33;;;2.23;;
6111;SDS011;3086;48.802;9.394;2023-08-30T11:18:19;2.63;;;2.40;;
6111;SDS011;3086;48.802;9.394;2023-08-30T11:21:43;3.40;;;2.10;;
6111;SDS011;3086;48.802;9.394;2023-08-30T11:25:05;4.17;;;2.30;;
6111;SDS011;3086;48.802;9.394;2023-08-30T11:28:29;2.10;;;2.00;;
6111;SDS011;3086;48.802;9.394;2023-08-30T11:31:55;2.73;;;1.87;;
6111;SDS011;3086;48.802;9.394;2023-08-30T11:35:18;2.30;;;2.10;;
6111;SDS011;3086;48.802;9.394;2023-08-30T11:38:39;2.20;;;2.10;;
6111;SDS011;3086;48.802;9.394;2023-08-30T11:42:02;2.57;;;2.00;;
6111;SDS011;3086;48.802;9.394;2023-08-30T11:45:25;3.80;;;1.90;;
6111;SDS011;3086;48.802;9.394;2023-08-30T11:48:47;3.00;;;1.93;;
6111;SDS011;3086;48.802;9.394;2023-08-30T11:52:10;3.70;;;2.30;;
6111;SDS011;3086;48.802;9.394;2023-08-30T11:55:32;2.93;;;2.00;;
6111;SDS011;3086;48.802;9.394;2023-08-30T11:58:54;2.83;;;1.77;;
6111;SDS011;3086;48.802;9.394;2023-08-30T12:02:16;2.00;;;1.90;;
6111;SDS011;3086;48.802;9.394;2023-08-30T12:05:43;1.90;;;1.80;;
6111;SDS011;3086;48.802;9.394;2023-08-30T12:09:11;1.87;;;1.77;;
6111;SDS011;3086;48.802;9.394;2023-08-30T12:12:33;2.10;;;1.90;;
6111;SDS011;3086;48.802;9.394;2023-08-30T12:15:57;2.30;;;2.10;;
6111;SDS011;3086;48.802;9.394;2023-08-30T12:19:19;2.43;;;2.23;;
6111;SDS011;3086;48.802;9.394;2023-08-30T12:22:43;2.00;;;1.73;;
6111;SDS011;3086;48.802;9.394;2023-08-30T12:26:06;2.53;;;2.00;;
6111;SDS011;3086;48.802;9.394;2023-08-30T12:29:29;7.47;;;3.90;;
6111;SDS011;3086;48.802;9.394;2023-08-30T12:32:50;5.37;;;3.90;;
6111;SDS011;3086;48.802;9.394;2023-08-30T12:36:20;5.33;;;4.83;;
6111;SDS011;3086;48.802;9.394;2023-08-30T12:39:42;5.37;;;4.90;;
6111;SDS011;3086;48.802;9.394;2023-08-30T12:43:05;7.30;;;5.20;;
6111;SDS011;3086;48.802;9.394;2023-08-30T12:46:26;7.80;;;7.13;;
6111;SDS011;3086;48.802;9.394;2023-08-30T12:49:48;6.90;;;6.27;;
6111;SDS011;3086;48.802;9.394;2023-08-30T12:53:09;7.63;;;6.93;;
6111;SDS011;3086;48.802;9.394;2023-08-30T12:56:31;4.97;;;4.20;;
6111;SDS011;3086;48.802;9.394;2023-08-30T12:59:54;4.70;;;4.30;;
6111;SDS011;3086;48.802;9.394;2023-08-30T13:03:16;4.17;;;3.10;;
6111;SDS011;3086;48.802;9.394;2023-08-30T13:06:37;3.70;;;3.40;;
6111;SDS011;3086;48.802;9.394;2023-08-30T13:09:59;3.43;;;3.23;;
6111;SDS011;3086;48.802;9.394;2023-08-30T13:13:20;3.13;;;2.90;;
6111;SDS011;3086;48.802;9.394;2023-08-30T13:16:43;3.70;;;3.40;;
6111;SDS011;3086;48.802;9.394;2023-08-30T13:20:05;3.67;;;3.30;;
6111;SDS011;3086;48.802;9.394;2023-08-30T13:23:28;3.13;;;2.93;;
6111;SDS011;3086;48.802;9.394;2023-08-30T13:26:51;4.97;;;3.00;;
6111;SDS011;3086;48.802;9.394;2023-08-30T13:30:14;3.43;;;3.13;;
6111;SDS011;3086;48.802;9.394;2023-08-30T13:33:36;3.57;;;2.60;;
6111;SDS011;3086;48.802;9.394;2023-08-30T13:36:58;3.33;;;2.70;;
6111;SDS011;3086;48.802;9.394;2023-08-30T13:40:19;6.17;;;3.00;;
6111;SDS011;3086;48.802;9.394;2023-08-30T13:43:41;2.50;;;2.30;;
6111;SDS011;3086;48.802;9.394;2023-08-30T13:47:03;2.80;;;2.60;;
6111;SDS011;3086;48.802;9.394;2023-08-30T13:50:26;2.47;;;2.10;;
6111;SDS011;3086;48.802;9.394;2023-08-30T13:53:50;2.23;;;2.13;;
6111;SDS011;3086;48.802;9.394;2023-08-30T13:57:12;2.83;;;2.50;;
6111;SDS011;3086;48.802;9.394;2023-08-30T14:00:33;2.60;;;2.40;;
6111;SDS011;3086;48.802;9.394;2023-08-30T14:03:55;2.20;;;2.00;;
6111;SDS011;3086;48.802;9.394;2023-08-30T14:07:18;2.47;;;2.27;;
6111;SDS011;3086;48.802;9.394;2023-08-30T14:10:39;2.50;;;2.30;;
6111;SDS011;3086;48.802;9.394;2023-08-30T14:14:01;2.03;;;1.93;;
6111;SDS011;3086;48.802;9.394;2023-08-30T14:17:23;2.10;;;1.90;;
6111;SDS011;3086;48.802;9.394;2023-08-30T14:20:44;1.93;;;1.83;;
6111;SDS011;3086;48.802;9.394;2023-08-30T14:24:07;2.77;;;2.10;;
6111;SDS011;3086;48.802;9.394;2023-08-30T14:27:29;2.23;;;1.83;;
6111;SDS011;3086;48.802;9.394;2023-08-30T14:30:57;2.20;;;2.00;;
6111;SDS011;3086;48.802;9.394;2023-08-30T14:34:19;1.80;;;1.70;;
6111;SDS011;3086;48.802;9.394;2023-08-30T14:37:41;1.83;;;1.63;;
6111;SDS011;3086;48.802;9.394;2023-08-30T14:41:04;2.00;;;1.90;;
6111;SDS011;3086;48.802;9.394;2023-08-30T14:44:25;2.00;;;1.90;;
6111;SDS011;3086;48.802;9.394;2023-08-30T14:47:47;1.70;;;1.60;;
6111;SDS011;3086;48.802;9.394;2023-08-30T14:51:09;1.97;;;1.87;;
6111;SDS011;3086;48.802;9.394;2023-08-30T14:54:30;2.93;;;1.77;;
6111;SDS011;3086;48.802;9.394;2023-08-30T14:57:53;1.97;;;1.77;;
6111;SDS011;3086;48.802;9.394;2023-08-30T15:01:15;2.17;;;1.97;;
6111;SDS011;3086;48.802;9.394;2023-08-30T15:04:36;2.13;;;1.90;;
6111;SDS011;3086;48.802;9.394;2023-08-30T15:07:58;1.90;;;1.80;;
6111;SDS011;3086;48.802;9.394;2023-08-30T15:11:19;2.37;;;2.10;;
6111;SDS011;3086;48.802;9.394;2023-08-30T15:14:42;3.70;;;2.10;;
6111;SDS011;3086;48.802;9.394;2023-08-30T15:18:04;2.50;;;2.30;;
6111;SDS011;3086;48.802;9.394;2023-08-30T15:21:26;2.10;;;2.00;;
6111;SDS011;3086;48.802;9.394;2023-08-30T15:24:47;4.43;;;2.20;;
6111;SDS011;3086;48.802;9.394;2023-08-30T15:28:09;2.60;;;2.40;;
6111;SDS011;3086;48.802;9.394;2023-08-30T15:31:32;2.40;;;2.20;;
6111;SDS011;3086;48.802;9.394;2023-08-30T15:34:53;2.40;;;2.30;;
6111;SDS011;3086;48.802;9.394;2023-08-30T15:38:15;5.70;;;2.07;;
6111;SDS011;3086;48.802;9.394;2023-08-30T15:41:37;2.30;;;2.03;;
6111;SDS011;3086;48.802;9.394;2023-08-30T15:44:58;2.40;;;2.20;;
6111;SDS011;3086;48.802;9.394;2023-08-30T15:48:21;2.47;;;2.20;;
6111;SDS011;3086;48.802;9.394;2023-08-30T15:51:43;2.80;;;2.13;;
6111;SDS011;3086;48.802;9.394;2023-08-30T15:55:04;2.57;;;2.37;;
6111;SDS011;3086;48.802;9.394;2023-08-30T15:58:27;3.53;;;2.70;;
6111;SDS011;3086;48.802;9.394;2023-08-30T16:01:48;2.77;;;2.50;;
6111;SDS011;3086;48.802;9.394;2023-08-30T16:05:11;2.23;;;1.97;;
6111;SDS011;3086;48.802;9.394;2023-08-30T16:08:32;3.17;;;2.20;;
6111;SDS011;3086;48.802;9.394;2023-08-30T16:11:54;2.67;;;2.40;;
6111;SDS011;3086;48.802;9.394;2023-08-30T16:15:15;2.43;;;2.23;;
6111;SDS011;3086;48.802;9.394;2023-08-30T16:18:37;1.93;;;1.83;;
6111;SDS011;3086;48.802;9.394;2023-08-30T16:22:00;2.13;;;2.03;;
6111;SDS011;3086;48.802;9.394;2023-08-30T16:25:21;3.70;;;2.30;;
6111;SDS011;3086;48.802;9.394;2023-08-30T16:28:45;2.93;;;2.47;;
6111;SDS011;3086;48.802;9.394;2023-08-30T16:32:07;3.10;;;2.07;;
6111;SDS011;3086;48.802;9.394;2023-08-30T16:35:28;2.40;;;2.20;;
6111;SDS011;3086;48.802;9.394;2023-08-30T16:38:51;2.83;;;2.20;;
6111;SDS011;3086;48.802;9.394;2023-08-30T16:42:13;3.37;;;2.33;;
6111;SDS011;3086;48.802;9.394;2023-08-30T16:45:34;2.20;;;2.00;;
6111;SDS011;3086;48.802;9.394;2023-08-30T16:48:56;2.70;;;2.50;;
6111;SDS011;3086;48.802;9.394;2023-08-30T16:52:17;2.80;;;2.30;;
6111;SDS011;3086;48.802;9.394;2023-08-30T16:55:41;4.80;;;2.47;;
6111;SDS011;3086;48.802;9.394;2023-08-30T16:59:03;3.30;;;2.73;;
6111;SDS011;3086;48.802;9.394;2023-08-30T17:02:24;2.90;;;2.70;;
6111;SDS011;3086;48.802;9.394;2023-08-30T17:05:46;3.00;;;2.77;;
6111;SDS011;3086;48.802;9.394;2023-08-30T17:09:07;3.13;;;2.63;;
6111;SDS011;3086;48.802;9.394;2023-08-30T17:12:30;3.23;;;2.97;;
6111;SDS011;3086;48.802;9.394;2023-08-30T17:15:52;4.97;;;2.27;;
6111;SDS011;3086;48.802;9.394;2023-08-30T17:19:17;3.07;;;2.00;;
6111;SDS011;3086;48.802;9.394;2023-08-30T17:22:39;3.17;;;2.73;;
6111;SDS011;3086;48.802;9.394;2023-08-30T17:26:00;2.80;;;2.50;;
6111;SDS011;3086;48.802;9.394;2023-08-30T17:29:24;3.33;;;2.67;;
6111;SDS011;3086;48.802;9.394;2023-08-30T17:32:53;3.00;;;2.70;;
6111;SDS011;3086;48.802;9.394;2023-08-30T17:36:14;3.10;;;2.80;;
6111;SDS011;3086;48.802;9.394;2023-08-30T17:39:36;3.40;;;3.10;;
6111;SDS011;3086;48.802;9.394;2023-08-30T17:42:57;4.00;;;3.13;;
6111;SDS011;3086;48.802;9.394;2023-08-30T17:46:20;3.70;;;3.00;;
6111;SDS011;3086;48.802;9.394;2023-08-30T17:49:42;2.80;;;2.60;;
6111;SDS011;3086;48.802;9.394;2023-08-30T17:53:04;3.20;;;3.00;;
6111;SDS011;3086;48.802;9.394;2023-08-30T17:56:25;3.27;;;3.03;;
6111;SDS011;3086;48.802;9.394;2023-08-30T17:59:47;3.80;;;3.50;;
6111;SDS011;3086;48.802;9.394;2023-08-30T18:03:09;3.47;;;3.03;;
6111;SDS011;3086;48.802;9.394;2023-08-30T18:06:31;6.33;;;3.30;;
6111;SDS011;3086;48.802;9.394;2023-08-30T18:09:54;3.67;;;2.93;;
6111;SDS011;3086;48.802;9.394;2023-08-30T18:13:15;3.90;;;3.33;;
6111;SDS011;3086;48.802;9.394;2023-08-30T18:16:37;3.00;;;2.80;;
6111;SDS011;3086;48.802;9.394;2023-08-30T18:20:00;3.17;;;2.97;;
6111;SDS011;3086;48.802;9.394;2023-08-30T18:23:23;3.37;;;3.00;;
6111;SDS011;3086;48.802;9.394;2023-08-30T18:26:45;3.17;;;2.90;;
6111;SDS011;3086;48.802;9.394;2023-08-30T18:30:07;4.50;;;3.37;;
6111;SDS011;3086;48.802;9.394;2023-08-30T18:33:30;3.30;;;3.00;;
6111;SDS011;3086;48.802;9.394;2023-08-30T18:36:52;4.67;;;3.20;;
6111;SDS011;3086;48.802;9.394;2023-08-30T18:40:16;3.33;;;3.03;;
6111;SDS011;3086;48.802;9.394;2023-08-30T18:43:38;4.03;;;3.63;;
6111;SDS011;3086;48.802;9.394;2023-08-30T18:47:02;3.60;;;3.30;;
6111;SDS011;3086;48.802;9.394;2023-08-30T18:50:24;6.30;;;3.60;;
6111;SDS011;3086;48.802;9.394;2023-08-30T18:53:48;4.70;;;3.27;;
6111;SDS011;3086;48.802;9.394;2023-08-30T18:57:10;4.67;;;3.40;;
6111;SDS011;3086;48.802;9.394;2023-08-30T19:00:31;4.77;;;3.83;;
6111;SDS011;3086;48.802;9.394;2023-08-30T19:03:53;3.33;;;3.10;;
6111;SDS011;3086;48.802;9.394;2023-08-30T19:07:15;3.87;;;3.57;;
6111;SDS011;3086;48.802;9.394;2023-08-30T19:10:37;5.73;;;3.93;;
6111;SDS011;3086;48.802;9.394;2023-08-30T19:13:59;4.30;;;3.20;;
6111;SDS011;3086;48.802;9.394;2023-08-30T19:20:57;3.67;;;3.37;;
6111;SDS011;3086;48.802;9.394;2023-08-30T19:24:19;4.57;;;3.57;;
6111;SDS011;3086;48.802;9.394;2023-08-30T19:27:42;3.97;;;3.13;;
6111;SDS011;3086;48.802;9.394;2023-08-30T19:31:04;4.00;;;3.40;;
6111;SDS011;3086;48.802;9.394;2023-08-30T19:34:25;5.20;;;3.20;;
6111;SDS011;3086;48.802;9.394;2023-08-30T19:37:47;3.40;;;3.10;;
6111;SDS011;3086;48.802;9.394;2023-08-30T19:41:09;4.10;;;3.77;;
6111;SDS011;3086;48.802;9.394;2023-08-30T19:44:32;3.97;;;3.67;;
6111;SDS011;3086;48.802;9.394;2023-08-30T19:47:54;3.93;;;3.57;;
6111;SDS011;3086;48.802;9.394;2023-08-30T19:51:15;5.90;;;3.53;;
6111;SDS011;3086;48.802;9.394;2023-08-30T19:54:37;4.63;;;3.73;;
6111;SDS011;3086;48.802;9.394;2023-08-30T19:57:58;3.50;;;3.17;;
6111;SDS011;3086;48.802;9.394;2023-08-30T20:01:25;4.23;;;3.40;;
6111;SDS011;3086;48.802;9.394;2023-08-30T20:04:47;3.40;;;3.10;;
6111;SDS011;3086;48.802;9.394;2023-08-30T20:08:09;5.13;;;3.57;;
6111;SDS011;3086;48.802;9.394;2023-08-30T20:11:30;4.00;;;3.60;;
6111;SDS011;3086;48.802;9.394;2023-08-30T20:14:52;4.03;;;3.73;;
6111;SDS011;3086;48.802;9.394;2023-08-30T20:18:15;18.97;;;16.07;;
6111;SDS011;3086;48.802;9.394;2023-08-30T20:21:36;14.37;;;12.87;;
6111;SDS011;3086;48.802;9.394;2023-08-30T20:24:58;6.57;;;5.93;;
6111;SDS011;3086;48.802;9.394;2023-08-30T20:28:19;4.43;;;4.03;;
6111;SDS011;3086;48.802;9.394;2023-08-30T20:31:42;5.63;;;3.63;;
6111;SDS011;3086;48.802;9.394;2023-08-30T20:35:05;3.73;;;2.87;;
6111;SDS011;3086;48.802;9.394;2023-08-30T20:38:27;3.73;;;3.00;;
6111;SDS011;3086;48.802;9.394;2023-08-30T20:41:49;3.50;;;3.20;;
6111;SDS011;3086;48.802;9.394;2023-08-30T20:45:14;3.20;;;2.90;;
6111;SDS011;3086;48.802;9.394;2023-08-30T20:48:36;3.53;;;2.97;;
6111;SDS011;3086;48.802;9.394;2023-08-30T20:51:58;4.73;;;3.20;;